createdAt,value
2023-01-19T00:02:19.669Z,99181.78
2023-01-19T00:04:52.272Z,99205.88
2023-01-19T00:07:19.685Z,99207.88
2023-01-19T00:09:46.746Z,99182.69
2023-01-19T00:12:13.722Z,99196.66
2023-01-19T00:14:40.765Z,99192.22
2023-01-19T00:17:07.859Z,99176.59
2023-01-19T00:19:34.976Z,99169.31
2023-01-19T00:22:01.984Z,99158.84
2023-01-19T00:24:29.112Z,99123.13
2023-01-19T00:26:56.959Z,99138.91
2023-01-19T00:29:24.233Z,99164.69
2023-01-19T00:31:51.412Z,99164.16
2023-01-19T00:34:18.687Z,99193.66
2023-01-19T00:36:45.793Z,99169.13
2023-01-19T00:39:12.917Z,99179.69
2023-01-19T00:41:58.750Z,99193.78
2023-01-19T00:44:25.803Z,99178.34
2023-01-19T00:46:52.773Z,99181.53
2023-01-19T00:49:19.923Z,99188.47
2023-01-19T00:51:47.257Z,99183.53
2023-01-19T00:54:14.776Z,99103.75
2023-01-19T00:56:41.897Z,99189.53
2023-01-19T00:59:09.061Z,99177.22
2023-01-19T01:01:45.472Z,99173.97
2023-01-19T01:04:14.454Z,99202.56
2023-01-19T01:06:41.527Z,99105.56
2023-01-19T01:09:12.174Z,99145.00
2023-01-19T01:11:40.577Z,99138.25
2023-01-19T01:14:08.631Z,99159.41
2023-01-19T01:16:35.982Z,99127.72
2023-01-19T01:19:03.029Z,99155.13
2023-01-19T01:21:30.227Z,99138.06
2023-01-19T01:23:57.275Z,99122.63
2023-01-19T01:26:26.387Z,99115.56
2023-01-19T01:28:54.164Z,99110.19
2023-01-19T01:31:21.301Z,99089.38
2023-01-19T01:33:48.514Z,99116.41
2023-01-19T01:36:15.910Z,99180.22
2023-01-19T01:38:43.055Z,99177.72
2023-01-19T01:41:11.040Z,99086.41
2023-01-19T01:43:48.689Z,99177.09
2023-01-19T01:46:17.472Z,99148.94
2023-01-19T01:48:52.014Z,99141.06
2023-01-19T01:51:25.631Z,99117.56
2023-01-19T01:54:18.135Z,99141.69
2023-01-19T01:56:51.585Z,99184.25
2023-01-19T01:59:30.071Z,99145.63
2023-01-19T02:02:19.154Z,99114.72
2023-01-19T02:04:50.603Z,99181.91
2023-01-19T02:07:45.589Z,99155.50
2023-01-19T02:10:30.997Z,99145.63
2023-01-19T02:13:16.980Z,99188.06
2023-01-19T02:15:44.982Z,99172.03
2023-01-19T02:18:12.262Z,99152.25
2023-01-19T02:20:43.567Z,99135.25
2023-01-19T02:23:17.554Z,99116.41
2023-01-19T02:25:44.738Z,99120.63
2023-01-19T02:28:12.180Z,99096.97
2023-01-19T02:30:41.284Z,99127.00
2023-01-19T02:33:08.631Z,99143.59
2023-01-19T02:35:38.790Z,99121.59
2023-01-19T02:38:10.607Z,99091.84
2023-01-19T02:51:17.424Z,99150.00
2023-01-19T02:54:12.476Z,99205.88
2023-01-19T02:56:42.275Z,99194.66
2023-01-19T02:59:24.776Z,99176.47
2023-01-19T03:01:57.821Z,99174.81
2023-01-19T03:04:47.680Z,99181.78
2023-01-19T03:07:31.089Z,99178.25
2023-01-19T03:10:21.617Z,99173.91
2023-01-19T03:13:15.042Z,99125.84
2023-01-19T03:19:40.771Z,99144.06
2023-01-19T03:22:28.551Z,99160.31
2023-01-19T03:25:12.578Z,99151.09
2023-01-19T03:34:45.716Z,99160.72
2023-01-19T03:37:32.592Z,99171.00
2023-01-19T03:40:09.104Z,99162.91
2023-01-19T03:42:38.386Z,99162.06
2023-01-19T03:45:06.317Z,99208.53
2023-01-19T03:47:34.422Z,99223.09
2023-01-19T03:50:06.440Z,99209.63
2023-01-19T03:52:36.527Z,99209.50
2023-01-19T03:55:05.574Z,99206.00
2023-01-19T03:57:32.843Z,99247.75
2023-01-19T04:00:00.032Z,99244.22
2023-01-19T04:02:27.447Z,99223.72
2023-01-19T04:04:55.912Z,99227.25
2023-01-19T04:07:22.939Z,99230.72
2023-01-19T04:09:50.187Z,99242.69
2023-01-19T04:12:17.181Z,99240.16
2023-01-19T04:14:44.268Z,99225.88
2023-01-19T04:17:12.067Z,99244.31
2023-01-19T04:19:39.140Z,99246.13
2023-01-19T04:22:06.630Z,99238.72
2023-01-19T04:24:33.517Z,99250.50
2023-01-19T04:27:00.886Z,99242.56
2023-01-19T04:29:27.989Z,99271.28
2023-01-19T04:31:54.923Z,99270.91
2023-01-19T04:34:22.001Z,99284.22
2023-01-19T04:36:51.426Z,99291.81
2023-01-19T04:39:18.415Z,99289.28
2023-01-19T04:44:57.342Z,99260.47
2023-01-19T04:47:24.493Z,99270.31
2023-01-19T04:53:05.483Z,99282.75
2023-01-19T04:56:15.960Z,99188.06
2023-01-19T04:58:46.230Z,99257.88
2023-01-19T05:01:13.457Z,99216.88
2023-01-19T05:03:40.905Z,99225.88
2023-01-19T05:06:08.110Z,99290.03
2023-01-19T05:08:35.183Z,99261.06
2023-01-19T05:11:02.629Z,99232.53
2023-01-19T05:13:29.771Z,99246.56
2023-01-19T05:15:57.058Z,99276.38
2023-01-19T05:18:24.462Z,99217.44
2023-01-19T05:21:04.753Z,99294.66
2023-01-19T05:23:32.915Z,99264.88
2023-01-19T05:26:02.175Z,99317.13
2023-01-19T05:28:30.680Z,99311.19
2023-01-19T05:30:57.916Z,99248.47
2023-01-19T05:33:25.437Z,99226.47
2023-01-19T05:35:53.484Z,99264.41
2023-01-19T05:38:34.300Z,99245.63
2023-01-19T05:41:02.591Z,99286.28
2023-01-19T05:43:29.771Z,99314.06
2023-01-19T05:45:57.022Z,99271.59
2023-01-19T05:48:24.099Z,99304.53
2023-01-19T05:50:51.643Z,99297.84
2023-01-19T05:53:18.787Z,99288.19
2023-01-19T05:55:46.034Z,99295.13
2023-01-19T05:58:13.120Z,99326.59
2023-01-19T06:00:50.495Z,99315.19
2023-01-19T06:03:52.207Z,99313.69
2023-01-19T06:09:32.101Z,99343.06
2023-01-19T06:11:59.928Z,99330.09
2023-01-19T06:20:19.015Z,99352.63
2023-01-19T06:25:55.778Z,99344.69
2023-01-19T06:28:23.823Z,99349.31
2023-01-19T06:30:52.362Z,99311.28
2023-01-19T06:33:20.176Z,99363.84
2023-01-19T06:35:49.033Z,99370.91
2023-01-19T06:38:19.895Z,99363.97
2023-01-19T06:40:54.338Z,99356.09
2023-01-19T06:43:22.253Z,99370.00
2023-01-19T06:45:50.339Z,99351.63
2023-01-19T06:48:18.376Z,99336.66
2023-01-19T06:50:51.172Z,99381.47
2023-01-19T06:53:32.009Z,99377.13
2023-01-19T06:56:18.811Z,99386.78
2023-01-19T06:59:57.951Z,99371.81
2023-01-19T07:09:00.754Z,99360.44
2023-01-19T07:12:12.374Z,99356.59
2023-01-19T07:14:39.352Z,99324.25
2023-01-19T07:17:06.568Z,99388.88
2023-01-19T07:19:35.071Z,99375.13
2023-01-19T07:22:03.311Z,99358.78
2023-01-19T07:24:38.161Z,99399.13
2023-01-19T07:27:05.654Z,99381.41
2023-01-19T07:29:32.747Z,99394.56
2023-01-19T07:32:00.011Z,99390.09
2023-01-19T07:34:27.249Z,99413.84
2023-01-19T07:36:56.190Z,99381.09
2023-01-19T07:39:23.522Z,99407.75
2023-01-19T07:41:50.770Z,99418.00
2023-01-19T07:44:18.048Z,99429.09
2023-01-19T07:46:45.083Z,99416.16
2023-01-19T07:49:12.817Z,99458.22
2023-01-19T07:51:39.862Z,99448.56
2023-01-19T07:54:08.631Z,99448.47
2023-01-19T07:56:50.017Z,99391.06
2023-01-19T08:02:30.919Z,99320.13
2023-01-19T08:05:08.816Z,99450.44
2023-01-19T08:13:35.625Z,99457.28
2023-01-19T08:16:02.829Z,99462.25
2023-01-19T08:21:39.742Z,99458.84
2023-01-19T08:24:07.663Z,99406.69
2023-01-19T08:26:44.700Z,99437.59
2023-01-19T08:32:44.536Z,99486.97
2023-01-19T08:35:26.429Z,99442.59
2023-01-19T08:37:54.275Z,99509.59
2023-01-19T08:40:28.816Z,99503.50
2023-01-19T08:43:11.319Z,99513.22
2023-01-19T08:45:48.281Z,99471.19
2023-01-19T08:48:17.865Z,99489.06
2023-01-19T08:50:49.181Z,99474.16
2023-01-19T08:53:17.158Z,99496.00
2023-01-19T08:55:44.257Z,99483.75
2023-01-19T08:58:11.278Z,99469.97
2023-01-19T09:00:39.804Z,99483.03
2023-01-19T09:03:10.017Z,99484.00
2023-01-19T09:05:39.046Z,99433.13
2023-01-19T09:08:11.986Z,99488.50
2023-01-19T09:10:40.451Z,99479.91
2023-01-19T09:13:11.158Z,99489.38
2023-01-19T09:15:42.476Z,99483.28
2023-01-19T09:18:13.745Z,99479.84
2023-01-19T09:20:42.889Z,99467.53
2023-01-19T09:23:11.608Z,99471.75
2023-01-19T09:25:39.759Z,99479.84
2023-01-19T09:28:09.341Z,99476.53
2023-01-19T09:30:37.942Z,99471.94
2023-01-19T09:33:07.604Z,99453.00
2023-01-19T09:35:35.198Z,99442.63
2023-01-19T09:38:02.644Z,99431.09
2023-01-19T09:40:30.424Z,99472.50
2023-01-19T09:43:12.471Z,99475.88
2023-01-19T09:45:59.329Z,99489.56
2023-01-19T09:48:26.264Z,99486.06
2023-01-19T09:50:56.776Z,99473.94
2023-01-19T09:53:52.368Z,99327.41
2023-01-19T09:56:20.710Z,99485.22
2023-01-19T09:58:49.574Z,99471.28
2023-01-19T10:01:55.273Z,99479.84
2023-01-19T10:04:34.267Z,99489.38
2023-01-19T10:07:10.433Z,99488.59
2023-01-19T10:09:51.741Z,99404.19
2023-01-19T10:12:44.554Z,99454.31
2023-01-19T10:15:33.355Z,99484.19
2023-01-19T10:18:20.706Z,99479.91
2023-01-19T10:20:56.798Z,99451.84
2023-01-19T10:23:36.454Z,99491.06
2023-01-19T10:26:12.180Z,99479.84
2023-01-19T10:28:40.928Z,99491.06
2023-01-19T10:31:09.925Z,99469.53
2023-01-19T10:33:38.732Z,99466.44
2023-01-19T10:36:15.583Z,99442.91
2023-01-19T10:38:42.692Z,99475.25
2023-01-19T10:41:30.580Z,99479.72
2023-01-19T10:44:02.915Z,99477.91
2023-01-19T10:46:38.810Z,99478.81
2023-01-19T10:49:06.973Z,99483.88
2023-01-19T10:51:34.198Z,99468.75
2023-01-19T10:54:04.551Z,99469.88
2023-01-19T10:56:33.097Z,99475.06
2023-01-19T10:59:02.181Z,99453.66
2023-01-19T11:01:31.327Z,99460.94
2023-01-19T11:04:05.857Z,99458.00
2023-01-19T11:06:34.624Z,99474.72
2023-01-19T11:09:20.181Z,99458.66
2023-01-19T11:11:53.199Z,99497.00
2023-01-19T11:14:23.358Z,99491.78
2023-01-19T11:16:55.066Z,99467.00
2023-01-19T11:19:30.332Z,99479.00
2023-01-19T11:22:24.941Z,99494.13
2023-01-19T11:24:52.349Z,99494.81
2023-01-19T11:27:21.388Z,99469.72
2023-01-19T11:30:05.382Z,99482.94
2023-01-19T11:32:35.841Z,99471.72
2023-01-19T11:35:28.941Z,99506.91
2023-01-19T11:38:27.407Z,99507.63
2023-01-19T11:40:59.297Z,99524.78
2023-01-19T11:43:43.583Z,99483.56
2023-01-19T11:46:16.592Z,99510.72
2023-01-19T11:48:56.801Z,99510.09
2023-01-19T11:51:28.759Z,99506.59
2023-01-19T11:53:55.860Z,99518.84
2023-01-19T11:56:33.519Z,99496.31
2023-01-19T11:59:14.165Z,99477.88
2023-01-19T12:01:55.029Z,99470.91
2023-01-19T12:04:41.349Z,99464.84
2023-01-19T12:07:12.970Z,99525.78
2023-01-19T12:09:48.831Z,99532.72
2023-01-19T12:12:33.401Z,99531.78
2023-01-19T12:15:03.538Z,99542.94
2023-01-19T12:17:33.948Z,99541.06
2023-01-19T12:20:15.143Z,99553.03
2023-01-19T12:22:50.944Z,99528.25
2023-01-19T12:25:43.291Z,99556.63
2023-01-19T12:28:14.574Z,99526.50
2023-01-19T12:33:31.596Z,99559.06
2023-01-19T12:36:07.316Z,99581.47
2023-01-19T12:38:52.968Z,99585.84
2023-01-19T12:41:33.655Z,99566.88
2023-01-19T12:44:09.944Z,99576.34
2023-01-19T12:47:13.094Z,99549.09
2023-01-19T12:49:44.510Z,99564.28
2023-01-19T12:52:31.014Z,99596.09
2023-01-19T12:55:13.249Z,99550.72
2023-01-19T12:57:46.847Z,99559.56
2023-01-19T13:00:23.240Z,99553.94
2023-01-19T13:02:55.053Z,99565.94
2023-01-19T13:05:42.111Z,99548.63
2023-01-19T13:08:09.182Z,99552.97
2023-01-19T13:11:02.373Z,99542.59
2023-01-19T13:13:30.781Z,99577.97
2023-01-19T13:19:22.333Z,99557.75
2023-01-19T13:21:49.791Z,99536.59
2023-01-19T13:24:22.603Z,99565.00
2023-01-19T13:26:49.827Z,99566.75
2023-01-19T13:29:40.525Z,99566.81
2023-01-19T13:32:18.933Z,99524.81
2023-01-19T13:34:52.418Z,99456.09
2023-01-19T13:37:23.215Z,99494.94
2023-01-19T13:39:53.999Z,99532.03
2023-01-19T13:42:35.733Z,99526.91
2023-01-19T13:45:17.442Z,99475.25
2023-01-19T13:47:47.359Z,99545.03
2023-01-19T13:50:22.686Z,99530.13
2023-01-19T13:52:51.557Z,99515.88
2023-01-19T13:55:20.677Z,99545.03
2023-01-19T13:57:49.710Z,99549.31
2023-01-19T14:00:18.407Z,99564.03
2023-01-19T14:03:11.793Z,99559.69
2023-01-19T14:05:43.604Z,99533.31
2023-01-19T14:08:13.637Z,99570.19
2023-01-19T14:11:02.448Z,99582.31
2023-01-19T14:13:43.379Z,99571.72
2023-01-19T14:16:17.850Z,99550.09
2023-01-19T14:18:45.042Z,99597.72
2023-01-19T14:21:14.735Z,99601.16
2023-01-19T14:24:19.083Z,99594.44
2023-01-19T14:26:51.461Z,99608.00
2023-01-19T14:29:32.596Z,99593.84
2023-01-19T14:32:16.643Z,99612.50
2023-01-19T14:35:04.760Z,99592.81
2023-01-19T14:37:35.495Z,99559.19
2023-01-19T14:40:08.316Z,99604.94
2023-01-19T14:42:39.278Z,99572.75
2023-01-19T14:45:16.261Z,99609.13
2023-01-19T14:47:45.076Z,99583.41
2023-01-19T14:50:23.648Z,99593.66
2023-01-19T14:53:01.060Z,99585.72
2023-01-19T14:55:56.994Z,99596.31
2023-01-19T14:58:26.891Z,99591.03
2023-01-19T15:00:56.853Z,99577.00
2023-01-19T15:07:19.321Z,99586.09
2023-01-19T15:09:50.157Z,99563.59
2023-01-19T15:12:20.868Z,99549.59
2023-01-19T15:14:47.992Z,99576.56
2023-01-19T15:17:25.807Z,99565.28
2023-01-19T15:19:54.551Z,99566.25
2023-01-19T15:22:22.859Z,99583.84
2023-01-19T15:24:50.124Z,99608.22
2023-01-19T15:27:17.617Z,99594.97
2023-01-19T15:29:57.984Z,99593.13
2023-01-19T15:39:07.366Z,99582.44
2023-01-19T15:48:45.752Z,99558.44
2023-01-19T15:51:18.325Z,99594.69
2023-01-19T15:53:46.665Z,99584.31
2023-01-19T15:56:25.698Z,99580.78
2023-01-19T15:58:53.982Z,99586.09
2023-01-19T16:01:32.220Z,99543.72
2023-01-19T16:04:01.557Z,99566.13
2023-01-19T16:06:30.891Z,99546.94
2023-01-19T16:09:03.991Z,99573.06
2023-01-19T16:11:35.234Z,99570.53
2023-01-19T16:30:09.400Z,99527.97
2023-01-19T16:32:42.922Z,99526.84
2023-01-19T16:38:45.372Z,99544.44
2023-01-19T16:41:28.628Z,99552.34
2023-01-19T16:43:58.422Z,99551.44
2023-01-19T16:46:28.141Z,99561.81
2023-01-19T16:49:00.844Z,99523.28
2023-01-19T16:51:28.113Z,99540.72
2023-01-19T16:53:55.580Z,99526.72
2023-01-19T16:56:22.635Z,99547.91
2023-01-19T16:58:57.888Z,99532.16
2023-01-19T17:01:26.994Z,99533.25
2023-01-19T17:04:00.197Z,99503.75
2023-01-19T17:06:28.431Z,99533.91
2023-01-19T17:08:55.729Z,99535.66
2023-01-19T17:11:32.887Z,99529.56
2023-01-19T17:14:04.198Z,99527.97
2023-01-19T17:16:33.868Z,99523.41
2023-01-19T17:19:02.603Z,99444.06
2023-01-19T17:21:30.255Z,99513.06
2023-01-19T17:23:58.300Z,99519.34
2023-01-19T17:26:28.392Z,99534.03
2023-01-19T17:29:00.729Z,99507.22
2023-01-19T17:31:28.484Z,99516.59
2023-01-19T17:33:55.911Z,99516.59
2023-01-19T17:36:25.452Z,99505.13
2023-01-19T17:38:57.671Z,99515.72
2023-01-19T17:41:30.309Z,99522.59
2023-01-19T17:44:00.681Z,99521.78
2023-01-19T17:46:28.893Z,99520.88
2023-01-19T17:48:58.161Z,99522.44
2023-01-19T17:51:26.773Z,99506.88
2023-01-19T17:53:55.189Z,99519.91
2023-01-19T17:56:29.889Z,99505.75
2023-01-19T17:58:58.239Z,99525.09
2023-01-19T18:01:27.876Z,99510.81
2023-01-19T18:03:55.507Z,99505.63
2023-01-19T18:06:22.869Z,99527.75
2023-01-19T18:08:50.119Z,99528.59
2023-01-19T18:11:19.358Z,99523.41
2023-01-19T18:13:48.510Z,99518.00
2023-01-19T18:16:18.742Z,99533.91
2023-01-19T18:18:45.957Z,99536.44
2023-01-19T18:21:14.984Z,99520.88
2023-01-19T18:23:43.554Z,99521.78
2023-01-19T18:26:14.255Z,99513.06
2023-01-19T18:28:41.276Z,99498.69
2023-01-19T18:31:10.938Z,99538.13
2023-01-19T18:33:39.089Z,99517.41
2023-01-19T18:36:06.649Z,99462.84
2023-01-19T18:38:35.406Z,99491.22
2023-01-19T18:41:14.271Z,99507.75
2023-01-19T18:43:41.383Z,99510.53
2023-01-19T18:46:08.889Z,99498.91
2023-01-19T18:48:37.506Z,99506.00
2023-01-19T18:51:09.836Z,99481.50
2023-01-19T18:53:37.347Z,99483.09
2023-01-19T18:56:05.395Z,99495.88
2023-01-19T18:58:33.685Z,99445.13
2023-01-19T19:01:01.476Z,99442.22
2023-01-19T19:03:29.280Z,99452.94
2023-01-19T19:05:56.761Z,99484.63
2023-01-19T19:08:23.917Z,99480.34
2023-01-19T19:10:51.338Z,99500.28
2023-01-19T19:13:21.821Z,99491.69
2023-01-19T19:15:48.860Z,99499.38
2023-01-19T19:18:16.475Z,99488.81
2023-01-19T19:20:43.904Z,99476.31
2023-01-19T19:23:11.945Z,99484.44
2023-01-19T19:25:39.268Z,99483.84
2023-01-19T19:28:07.270Z,99482.09
2023-01-19T19:30:37.911Z,99490.13
2023-01-19T19:33:05.264Z,99475.25
2023-01-19T19:35:32.445Z,99501.22
2023-01-19T19:38:02.916Z,99511.75
2023-01-19T19:40:30.345Z,99506.47
2023-01-19T19:42:58.850Z,99519.59
2023-01-19T19:45:26.557Z,99467.13
2023-01-19T19:47:53.607Z,99506.69
2023-01-19T19:50:20.556Z,99497.16
2023-01-19T19:52:47.724Z,99466.66
2023-01-19T19:55:15.087Z,99493.78
2023-01-19T19:57:42.272Z,99481.97
2023-01-19T20:00:10.178Z,99485.59
2023-01-19T20:02:37.581Z,99412.28
2023-01-19T20:05:05.291Z,99492.66
2023-01-19T20:07:33.040Z,99506.03
2023-01-19T20:10:00.326Z,99486.31
2023-01-19T20:12:27.647Z,99478.88
2023-01-19T20:14:54.652Z,99491.59
2023-01-19T20:17:23.313Z,99487.94
2023-01-19T20:19:51.111Z,99482.22
2023-01-19T20:22:18.557Z,99436.16
2023-01-19T20:24:46.157Z,99482.25
2023-01-19T20:27:13.175Z,99480.75
2023-01-19T20:29:40.197Z,99474.59
2023-01-19T20:32:08.048Z,99464.19
2023-01-19T20:34:36.048Z,99460.81
2023-01-19T20:37:05.279Z,99423.03
2023-01-19T20:39:34.678Z,99448.56
2023-01-19T20:42:02.236Z,99453.66
2023-01-19T20:44:29.364Z,99473.06
2023-01-19T20:49:51.437Z,99478.25
2023-01-19T20:52:18.607Z,99450.94
2023-01-19T20:54:45.724Z,99438.00
2023-01-19T20:57:13.144Z,99447.81
2023-01-19T20:59:41.101Z,99473.94
2023-01-19T21:02:14.370Z,99471.09
2023-01-19T21:04:41.716Z,99470.66
2023-01-19T21:07:09.262Z,99497.66
2023-01-19T21:09:37.805Z,99487.06
2023-01-19T21:12:05.335Z,99465.56
2023-01-19T21:14:32.818Z,99450.56
2023-01-19T21:16:59.850Z,99415.72
2023-01-19T21:19:26.906Z,99477.03
2023-01-19T21:21:55.461Z,99456.72
2023-01-19T21:24:22.645Z,99477.13
2023-01-19T21:26:50.049Z,99437.44
2023-01-19T21:29:17.057Z,99436.69
2023-01-19T21:31:44.126Z,99504.94
2023-01-19T21:34:11.928Z,99476.09
2023-01-19T21:36:39.265Z,99431.50
2023-01-19T21:39:09.668Z,99456.84
2023-01-19T21:41:39.889Z,99488.72
2023-01-19T21:44:07.067Z,99453.41
2023-01-19T21:46:34.228Z,99467.19
2023-01-19T21:49:04.951Z,99427.47
2023-01-19T21:51:36.737Z,99463.56
2023-01-19T21:54:06.044Z,99463.75
2023-01-19T21:56:33.841Z,99462.13
2023-01-19T21:59:04.515Z,99422.63
2023-01-19T22:01:33.054Z,99435.75
2023-01-19T22:04:00.548Z,99445.66
2023-01-19T22:06:28.305Z,99450.06
2023-01-19T22:08:58.489Z,99458.13
2023-01-19T22:11:25.697Z,99459.00
2023-01-19T22:13:53.635Z,99468.66
2023-01-19T22:16:22.915Z,99434.19
2023-01-19T22:18:54.066Z,99464.41
2023-01-19T22:21:23.701Z,99443.00
2023-01-19T22:23:56.226Z,99473.13
2023-01-19T22:26:23.736Z,99423.94
2023-01-19T22:28:54.437Z,99417.00
2023-01-19T22:31:22.774Z,99466.25
2023-01-19T22:33:51.033Z,99424.25
2023-01-19T22:36:22.338Z,99451.63
2023-01-19T22:38:52.103Z,99421.84
2023-01-19T22:41:21.942Z,99462.19
2023-01-19T22:43:50.623Z,99450.91
2023-01-19T22:46:19.693Z,99446.63
2023-01-19T22:48:48.505Z,99462.25
2023-01-19T22:51:16.534Z,99430.56
2023-01-19T22:53:43.681Z,99423.56
2023-01-19T22:56:21.985Z,99451.03
2023-01-19T22:58:49.595Z,99435.72
2023-01-19T23:01:22.745Z,99428.03
2023-01-19T23:03:50.493Z,99461.59
2023-01-19T23:06:19.936Z,99434.97
2023-01-19T23:08:47.493Z,99473.66
2023-01-19T23:11:23.313Z,99484.22
2023-01-19T23:13:51.214Z,99465.09
2023-01-19T23:16:18.600Z,99444.00
2023-01-19T23:18:46.670Z,99451.81
2023-01-19T23:21:17.235Z,99481.06
2023-01-19T23:23:45.334Z,99491.56
2023-01-19T23:26:18.464Z,99459.03
2023-01-19T23:28:46.679Z,99461.88
2023-01-19T23:31:24.340Z,99464.34
2023-01-19T23:33:54.005Z,99450.59
2023-01-19T23:36:22.869Z,99456.81
2023-01-19T23:39:01.678Z,99440.09
2023-01-19T23:41:31.401Z,99471.00
2023-01-19T23:43:58.765Z,99476.00
2023-01-19T23:46:25.935Z,99470.06
2023-01-19T23:48:53.377Z,99483.97
2023-01-19T23:51:21.841Z,99486.69
2023-01-19T23:53:49.770Z,99437.31
2023-01-19T23:56:28.378Z,99479.72
2023-01-19T23:59:00.455Z,99477.69
